Time;durP1;ratioP1;P1;durP2;ratioP2;P2;SDS_P1;SDS_P2;PMS_P1;PMS_P2;Temp;Humidity;BMP_temperature;BMP_pressure;BME280_temperature;BME280_humidity;BME280_pressure;Samples;Min_cycle;Max_cycle;Signal;HPM_P1;HPM_P2
2021/04/25 00:01:48;;;;;;;5.93;3.80;;;6.40;99.90;;;;;;5058433;28;20233;-80
2021/04/25 00:04:15;;;;;;;6.22;4.03;;;6.40;99.90;;;;;;5058326;28;20592;-80
2021/04/25 00:06:42;;;;;;;4.97;3.40;;;5.50;99.90;;;;;;5058440;28;20214;-81
2021/04/25 00:09:08;;;;;;;3.97;3.35;;;6.60;99.90;;;;;;5059154;28;20203;-81
2021/04/25 00:11:35;;;;;;;4.80;3.10;;;5.60;99.90;;;;;;5058325;28;20231;-80
2021/04/25 00:14:01;;;;;;;4.40;3.25;;;6.30;99.90;;;;;;5058293;28;20666;-80
2021/04/25 00:16:28;;;;;;;3.80;2.78;;;6.10;99.90;;;;;;5057703;28;20701;-80
2021/04/25 00:18:55;;;;;;;3.50;2.83;;;6.10;99.90;;;;;;5058461;28;20239;-80
2021/04/25 00:21:28;;;;;;;6.03;3.05;;;6.00;99.90;;;;;;5059836;28;20583;-80
2021/04/25 00:23:55;;;;;;;3.85;3.35;;;5.90;99.90;;;;;;5057851;28;20669;-81
2021/04/25 00:26:22;;;;;;;7.20;3.17;;;5.60;99.90;;;;;;5058020;28;20238;-81
2021/04/25 00:28:48;;;;;;;2.20;2.00;;;6.10;99.90;;;;;;5057497;28;20746;-81
2021/04/25 00:31:14;;;;;;;6.07;2.92;;;6.60;99.90;;;;;;5057540;28;20238;-80
2021/04/25 00:33:41;;;;;;;3.50;3.20;;;6.30;99.90;;;;;;5057237;28;20564;-80
2021/04/25 00:36:07;;;;;;;4.60;3.00;;;6.80;99.90;;;;;;5057914;28;20580;-80
2021/04/25 00:38:34;;;;;;;3.30;2.60;;;5.50;99.90;;;;;;5060773;28;20207;-80
2021/04/25 00:41:00;;;;;;;4.97;3.28;;;5.20;99.90;;;;;;5061410;28;20249;-80
2021/04/25 00:43:26;;;;;;;5.30;3.00;;;5.70;99.90;;;;;;5061477;28;20187;-81
2021/04/25 00:45:52;;;;;;;3.03;2.70;;;6.20;99.90;;;;;;5059905;28;20602;-81
2021/04/25 00:48:19;;;;;;;3.00;2.25;;;5.40;99.90;;;;;;5061343;28;20198;-81
2021/04/25 00:50:46;;;;;;;4.45;2.53;;;5.10;99.90;;;;;;5061508;28;20317;-81
2021/04/25 00:53:12;;;;;;;4.13;2.60;;;6.10;99.90;;;;;;5061221;28;20211;-81
2021/04/25 00:55:38;;;;;;;4.20;2.75;;;5.40;99.90;;;;;;5060890;28;20199;-81
2021/04/25 00:58:05;;;;;;;4.50;2.38;;;6.00;99.90;;;;;;5060341;28;20237;-82
2021/04/25 01:00:31;;;;;;;4.13;2.45;;;;;;;;;;5061222;28;20209;-80
2021/04/25 01:02:58;;;;;;;5.63;3.20;;;;;;;;;;5060664;28;20211;-80
2021/04/25 01:05:25;;;;;;;4.38;2.40;;;6.40;99.90;;;;;;5061289;28;20227;-80
2021/04/25 01:07:52;;;;;;;3.80;2.30;;;5.90;99.90;;;;;;5060936;28;20214;-80
2021/04/25 01:10:19;;;;;;;6.13;2.80;;;6.20;99.90;;;;;;5065359;28;20210;-80
2021/04/25 01:12:46;;;;;;;5.35;2.75;;;6.20;99.90;;;;;;5066442;28;20219;-81
2021/04/25 01:15:15;;;;;;;2.28;2.08;;;5.50;99.90;;;;;;5064831;28;20195;-80
2021/04/25 01:17:42;;;;;;;3.40;2.38;;;6.00;99.90;;;;;;5070242;28;20203;-80
2021/04/25 01:20:11;;;;;;;5.15;2.30;;;4.50;99.90;;;;;;5063697;28;20199;-80
2021/04/25 01:22:39;;;;;;;3.85;2.13;;;6.50;99.90;;;;;;5061291;28;20235;-80
2021/04/25 01:25:07;;;;;;;3.78;2.55;;;5.90;99.90;;;;;;5061549;28;20229;-80
2021/04/25 01:27:34;;;;;;;3.88;2.80;;;6.50;99.90;;;;;;5060279;28;20327;-80
2021/04/25 01:30:02;;;;;;;5.07;2.45;;;6.50;99.90;;;;;;5060022;28;20203;-79
2021/04/25 01:32:28;;;;;;;5.38;3.15;;;6.50;99.90;;;;;;5059759;28;20778;-80
2021/04/25 01:34:54;;;;;;;2.88;2.35;;;6.10;99.90;;;;;;5061189;28;20191;-80
2021/04/25 01:37:22;;;;;;;6.20;2.88;;;7.00;99.90;;;;;;5072218;28;20203;-80
2021/04/25 01:39:49;;;;;;;2.72;2.50;;;6.60;99.90;;;;;;5074856;28;20211;-80
2021/04/25 01:42:15;;;;;;;7.20;3.13;;;6.60;99.90;;;;;;5076174;28;20296;-80
2021/04/25 01:44:41;;;;;;;3.95;2.90;;;5.80;99.90;;;;;;5064583;28;20227;-80
2021/04/25 01:47:07;;;;;;;4.22;2.72;;;6.00;99.90;;;;;;5068998;28;20555;-81
2021/04/25 01:49:34;;;;;;;3.65;3.35;;;6.40;99.90;;;;;;5071266;28;20207;-81
2021/04/25 01:52:01;;;;;;;4.60;3.78;;;6.60;99.90;;;;;;5062041;28;20280;-81
2021/04/25 01:54:28;;;;;;;7.45;3.58;;;6.40;99.90;;;;;;5061709;28;20199;-81
2021/04/25 01:56:56;;;;;;;4.05;3.65;;;5.70;99.90;;;;;;5060235;28;20673;-81
2021/04/25 01:59:22;;;;;;;5.50;4.20;;;;;;;;;;5061959;28;20207;-81
2021/04/25 02:01:48;;;;;;;6.95;3.63;;;6.30;99.90;;;;;;5060691;28;20314;-81
2021/04/25 02:04:15;;;;;;;7.60;4.85;;;5.80;99.90;;;;;;5060428;28;20226;-81
2021/04/25 02:06:44;;;;;;;5.53;3.53;;;5.80;99.90;;;;;;5060128;28;20561;-81
2021/04/25 02:09:10;;;;;;;3.67;3.38;;;6.30;99.90;;;;;;5062372;28;20203;-80
2021/04/25 02:11:37;;;;;;;4.75;3.40;;;;;;;;;;5074137;28;20227;-80
2021/04/25 02:14:05;;;;;;;7.90;4.43;;;6.50;99.90;;;;;;5073489;28;20198;-80
2021/04/25 02:16:31;;;;;;;4.20;3.47;;;5.90;99.90;;;;;;5061100;28;20203;-80
2021/04/25 02:18:57;;;;;;;3.95;2.97;;;6.00;99.90;;;;;;5068922;28;20226;-80
2021/04/25 02:21:24;;;;;;;9.07;3.58;;;5.80;99.90;;;;;;5078378;28;20207;-80
2021/04/25 02:23:50;;;;;;;7.80;4.30;;;6.60;99.90;;;;;;5077146;28;20219;-80
2021/04/25 02:26:17;;;;;;;6.28;3.40;;;5.80;99.90;;;;;;5076898;28;20207;-80
2021/04/25 02:28:43;;;;;;;4.95;3.08;;;6.40;99.90;;;;;;5078041;28;20298;-80
2021/04/25 02:31:10;;;;;;;10.13;3.50;;;6.40;99.90;;;;;;5076024;28;20227;-80
2021/04/25 02:33:37;;;;;;;6.85;3.25;;;6.00;99.90;;;;;;5067334;28;20198;-80
2021/04/25 02:36:05;;;;;;;5.10;3.80;;;6.50;99.90;;;;;;5061540;28;20203;-80
2021/04/25 02:38:31;;;;;;;5.78;3.85;;;6.60;99.90;;;;;;5061801;28;20207;-81
2021/04/25 02:43:34;;;;;;;7.93;4.00;;;6.40;99.90;;;;;;5038356;28;20204;-85
2021/04/25 02:46:00;;;;;;;3.67;3.30;;;6.30;99.90;;;;;;5039682;28;20618;-84
2021/04/25 02:48:27;;;;;;;5.80;3.80;;;6.00;99.90;;;;;;5041637;28;20210;-84
2021/04/25 02:50:53;;;;;;;4.78;3.78;;;5.90;99.90;;;;;;5043873;28;20208;-86
2021/04/25 02:53:20;;;;;;;5.03;3.47;;;;;;;;;;5044844;28;20239;-85
2021/04/25 02:55:46;;;;;;;5.10;2.70;;;6.20;99.90;;;;;;5045500;28;20566;-85
2021/04/25 02:58:12;;;;;;;5.35;3.70;;;5.60;99.90;;;;;;5044817;28;20233;-85
2021/04/25 03:00:40;;;;;;;7.30;3.83;;;6.00;99.90;;;;;;5043760;28;20200;-85
2021/04/25 03:03:06;;;;;;;4.65;2.90;;;5.90;99.90;;;;;;5049951;28;20227;-83
2021/04/25 03:05:33;;;;;;;6.60;3.60;;;6.00;99.90;;;;;;5056100;28;20228;-83
2021/04/25 03:07:59;;;;;;;5.10;3.15;;;6.50;99.90;;;;;;5054891;28;20234;-83
2021/04/25 03:10:26;;;;;;;4.57;3.22;;;5.90;99.90;;;;;;5056041;28;20192;-84
2021/04/25 03:12:53;;;;;;;3.95;3.65;;;;;;;;;;5057626;28;20212;-82
2021/04/25 03:15:20;;;;;;;5.35;3.60;;;5.90;99.90;;;;;;5057294;28;20207;-85
2021/04/25 03:17:48;;;;;;;3.47;3.20;;;5.90;99.90;;;;;;5056612;28;20238;-84
2021/04/25 03:20:16;;;;;;;6.90;3.35;;;6.00;99.90;;;;;;5056909;28;20211;-86
2021/04/25 03:22:43;;;;;;;7.00;3.20;;;6.00;99.90;;;;;;5056814;28;20231;-84
2021/04/25 03:25:11;;;;;;;4.60;3.50;;;5.90;99.90;;;;;;5054260;28;20234;-84
2021/04/25 03:27:39;;;;;;;4.75;3.35;;;6.00;99.90;;;;;;5044996;28;20290;-86
2021/04/25 03:30:07;;;;;;;6.10;3.97;;;6.00;99.90;;;;;;5045727;28;20199;-85
2021/04/25 03:32:34;;;;;;;9.50;3.40;;;5.60;99.90;;;;;;5044962;28;20512;-85
2021/04/25 03:35:00;;;;;;;3.25;2.95;;;5.80;99.90;;;;;;5044385;28;20207;-85
2021/04/25 03:37:27;;;;;;;4.47;3.78;;;5.80;99.90;;;;;;5043520;28;20210;-85
2021/04/25 03:39:54;;;;;;;4.70;3.40;;;5.80;99.90;;;;;;5044121;28;20226;-85
2021/04/25 03:42:20;;;;;;;4.05;3.40;;;5.90;99.90;;;;;;5041838;28;20239;-85
2021/04/25 03:44:46;;;;;;;4.55;3.15;;;5.90;99.90;;;;;;5042299;28;20271;-85
2021/04/25 03:47:12;;;;;;;5.22;3.33;;;;;;;;;;5044019;28;20215;-85
2021/04/25 03:49:38;;;;;;;5.30;3.53;;;5.90;99.90;;;;;;5047026;28;20200;-83
2021/04/25 03:52:06;;;;;;;6.70;2.55;;;5.90;99.90;;;;;;5043910;28;20584;-85
2021/04/25 03:54:32;;;;;;;26.52;17.85;;;5.90;99.90;;;;;;5042677;28;20286;-84
2021/04/25 03:56:59;;;;;;;8.20;5.38;;;5.50;99.90;;;;;;5042399;28;20790;-84
2021/04/25 03:59:26;;;;;;;7.82;5.20;;;5.50;99.90;;;;;;5043551;28;20199;-85
2021/04/25 04:01:53;;;;;;;5.93;3.08;;;5.90;99.90;;;;;;5042583;28;20235;-85
2021/04/25 04:04:19;;;;;;;3.15;2.90;;;5.80;99.90;;;;;;5036953;28;20336;-84
2021/04/25 04:06:46;;;;;;;5.47;4.32;;;;;;;;;;5038040;28;20211;-84
2021/04/25 04:09:12;;;;;;;4.97;3.10;;;6.20;99.90;;;;;;5040010;28;20207;-84
2021/04/25 04:11:38;;;;;;;5.00;3.25;;;;;;;;;;5042935;28;20216;-85
2021/04/25 04:14:05;;;;;;;4.15;3.00;;;6.20;99.90;;;;;;5051058;28;20203;-84
2021/04/25 04:16:31;;;;;;;4.90;3.38;;;5.90;99.90;;;;;;5052909;28;20199;-85
2021/04/25 04:18:58;;;;;;;4.32;2.97;;;6.00;99.90;;;;;;5051951;28;20213;-85
2021/04/25 04:21:24;;;;;;;6.32;3.40;;;6.20;99.90;;;;;;5053314;28;20231;-85
2021/04/25 04:23:50;;;;;;;3.08;2.38;;;;;;;;;;5054553;28;20261;-84
2021/04/25 04:26:16;;;;;;;6.65;3.47;;;6.30;99.90;;;;;;5056419;28;20208;-83
2021/04/25 04:28:42;;;;;;;3.40;3.00;;;6.30;99.90;;;;;;5056560;28;20257;-83
2021/04/25 04:31:10;;;;;;;5.10;3.78;;;;;;;;;;5056242;28;20282;-86
2021/04/25 04:33:36;;;;;;;5.40;2.80;;;6.20;99.90;;;;;;5058731;28;20199;-83
2021/04/25 04:36:03;;;;;;;5.00;2.78;;;6.10;99.90;;;;;;5060595;28;20207;-84
2021/04/25 04:38:29;;;;;;;4.50;3.40;;;;;;;;;;5055216;28;20577;-86
2021/04/25 04:40:56;;;;;;;4.22;3.20;;;6.20;99.90;;;;;;5055609;28;20207;-86
2021/04/25 04:43:23;;;;;;;7.22;3.65;;;6.30;99.90;;;;;;5050555;28;20258;-85
2021/04/25 04:45:49;;;;;;;4.90;3.90;;;6.40;99.90;;;;;;5054222;28;20650;-84
2021/04/25 04:48:17;;;;;;;3.85;3.50;;;6.20;99.90;;;;;;5053621;28;20196;-85
2021/04/25 04:50:43;;;;;;;4.90;3.60;;;5.40;99.90;;;;;;5055514;28;20204;-86
2021/04/25 04:53:09;;;;;;;5.35;4.10;;;6.40;99.90;;;;;;5054646;28;20254;-84
2021/04/25 04:55:38;;;;;;;13.15;4.88;;;6.30;99.90;;;;;;5053144;28;20330;-85
2021/04/25 04:58:05;;;;;;;4.47;4.07;;;6.40;99.90;;;;;;5052847;28;20208;-85
2021/04/25 05:00:31;;;;;;;7.57;4.30;;;6.20;99.90;;;;;;5054651;28;20301;-85
2021/04/25 05:02:57;;;;;;;9.45;4.40;;;5.80;99.90;;;;;;5052766;28;20224;-85
2021/04/25 05:05:24;;;;;;;5.70;4.25;;;6.20;99.90;;;;;;5052153;28;20230;-84
2021/04/25 05:07:51;;;;;;;6.57;3.70;;;5.70;99.90;;;;;;5051574;28;20265;-85
2021/04/25 05:10:17;;;;;;;8.35;4.35;;;6.30;99.90;;;;;;5050223;28;20468;-84
2021/04/25 05:12:43;;;;;;;6.72;4.60;;;5.60;99.90;;;;;;5051546;28;20228;-86
2021/04/25 05:15:10;;;;;;;6.90;4.45;;;6.20;99.90;;;;;;5052409;28;20211;-86
2021/04/25 05:17:36;;;;;;;7.03;5.35;;;6.40;99.90;;;;;;5049056;28;20203;-86
2021/04/25 05:20:03;;;;;;;7.28;3.65;;;6.40;99.90;;;;;;5046628;28;20192;-85
2021/04/25 05:22:30;;;;;;;5.75;4.00;;;6.50;99.90;;;;;;5045385;28;20227;-85
2021/04/25 05:24:56;;;;;;;4.75;3.80;;;5.90;99.90;;;;;;5046746;28;20220;-84
2021/04/25 05:27:23;;;;;;;6.65;3.10;;;6.60;99.90;;;;;;5047652;28;20211;-85
2021/04/25 05:29:49;;;;;;;4.40;4.00;;;6.50;99.90;;;;;;5052450;28;20208;-85
2021/04/25 05:32:15;;;;;;;6.40;3.72;;;6.70;99.90;;;;;;5046351;28;20251;-84
2021/04/25 05:34:41;;;;;;;8.63;4.55;;;6.80;99.90;;;;;;5045170;28;20207;-85
2021/04/25 05:37:08;;;;;;;4.53;3.88;;;7.20;99.90;;;;;;5045098;28;20582;-85
2021/04/25 05:39:34;;;;;;;5.10;3.70;;;6.90;99.90;;;;;;5043994;28;20672;-85
2021/04/25 05:42:01;;;;;;;5.85;3.55;;;6.70;99.90;;;;;;5043760;28;20453;-85
2021/04/25 05:44:28;;;;;;;5.93;4.18;;;6.80;99.90;;;;;;5043974;28;20215;-86
2021/04/25 05:46:54;;;;;;;5.30;4.20;;;6.80;99.90;;;;;;5044811;28;20287;-86
2021/04/25 05:49:20;;;;;;;7.10;4.45;;;6.70;99.90;;;;;;5045455;28;20231;-85
2021/04/25 05:51:46;;;;;;;6.53;4.53;;;8.30;99.90;;;;;;5045228;28;20235;-86
2021/04/25 05:54:12;;;;;;;6.57;4.00;;;6.90;99.90;;;;;;5044496;28;20449;-86
2021/04/25 05:56:39;;;;;;;4.90;3.97;;;5.80;99.90;;;;;;5047220;28;20207;-86
2021/04/25 05:59:06;;;;;;;6.68;3.65;;;;;;;;;;5058197;28;20184;-86
2021/04/25 06:01:32;;;;;;;6.93;4.43;;;7.30;99.90;;;;;;5045332;28;20678;-85
2021/04/25 06:03:58;;;;;;;5.93;3.78;;;6.70;99.90;;;;;;5045691;28;20843;-86
2021/04/25 06:06:26;;;;;;;5.45;3.30;;;7.40;99.90;;;;;;5047969;28;20211;-85
2021/04/25 06:08:53;;;;;;;4.10;3.22;;;;;;;;;;5057862;28;20198;-86
2021/04/25 06:11:19;;;;;;;3.95;3.15;;;7.00;99.90;;;;;;5059388;28;20247;-84
2021/04/25 06:13:46;;;;;;;4.03;3.33;;;7.10;99.90;;;;;;5052203;28;20204;-84
2021/04/25 06:16:12;;;;;;;3.30;2.90;;;9.30;99.90;;;;;;5047714;28;20218;-84
2021/04/25 06:18:38;;;;;;;6.55;3.78;;;7.20;99.90;;;;;;5052214;28;20208;-84
2021/04/25 06:21:05;;;;;;;6.70;3.42;;;7.50;99.90;;;;;;5054580;28;20204;-83
2021/04/25 06:23:34;;;;;;;4.05;3.05;;;7.40;99.90;;;;;;5055846;28;20203;-84
2021/04/25 06:26:00;;;;;;;4.55;2.95;;;7.30;99.90;;;;;;5056550;28;20223;-83
2021/04/25 06:28:28;;;;;;;7.50;2.78;;;7.50;99.90;;;;;;5053820;28;20183;-83
2021/04/25 06:30:56;;;;;;;5.65;2.78;;;7.40;99.90;;;;;;5051991;28;20208;-84
2021/04/25 06:33:22;;;;;;;5.05;3.10;;;7.60;99.90;;;;;;5047836;28;20212;-83
2021/04/25 06:35:49;;;;;;;3.50;2.40;;;;;;;;;;5041251;28;20203;-83
2021/04/25 06:38:15;;;;;;;4.65;2.83;;;7.70;99.90;;;;;;5046713;28;20208;-83
2021/04/25 06:40:42;;;;;;;4.63;3.55;;;7.40;99.90;;;;;;5043604;28;20211;-84
2021/04/25 06:43:08;;;;;;;4.03;2.30;;;;;;;;;;5042995;28;20472;-83
2021/04/25 06:45:35;;;;;;;4.15;2.90;;;7.20;99.90;;;;;;5045091;28;20223;-84
2021/04/25 06:48:02;;;;;;;3.47;3.00;;;7.40;99.90;;;;;;5046544;28;20207;-85
2021/04/25 06:50:29;;;;;;;2.65;2.45;;;;;;;;;;5045512;28;20211;-85
2021/04/25 06:52:55;;;;;;;3.53;2.65;;;7.60;99.90;;;;;;5047913;28;20235;-84
2021/04/25 06:55:24;;;;;;;4.28;2.60;;;7.60;99.90;;;;;;5048143;28;20437;-85
2021/04/25 06:57:51;;;;;;;3.90;2.60;;;7.60;99.90;;;;;;5052795;28;20211;-85
2021/04/25 07:00:20;;;;;;;3.03;2.75;;;7.60;99.90;;;;;;5051924;28;20442;-86
2021/04/25 07:02:47;;;;;;;6.10;3.07;;;7.40;99.90;;;;;;5047241;28;20277;-86
2021/04/25 07:05:15;;;;;;;3.10;2.70;;;7.90;99.90;;;;;;5046447;28;20485;-85
2021/04/25 07:07:41;;;;;;;3.25;2.88;;;7.80;99.90;;;;;;5057412;28;20196;-84
2021/04/25 07:10:09;;;;;;;5.25;2.60;;;7.80;99.90;;;;;;5058567;28;20191;-85
2021/04/25 07:12:36;;;;;;;3.00;2.70;;;7.40;99.90;;;;;;5058735;28;20216;-84
2021/04/25 07:15:02;;;;;;;3.53;2.53;;;7.40;99.90;;;;;;5055383;28;20203;-84
2021/04/25 07:17:28;;;;;;;3.50;3.20;;;7.00;99.90;;;;;;5053247;28;20207;-86
2021/04/25 07:19:54;;;;;;;4.85;2.70;;;7.10;99.90;;;;;;5052676;28;20204;-87
2021/04/25 07:22:21;;;;;;;6.07;2.80;;;7.20;99.90;;;;;;5048163;28;20231;-86
2021/04/25 07:24:50;;;;;;;4.47;2.65;;;7.10;99.90;;;;;;5052236;28;20220;-87
2021/04/25 07:27:16;;;;;;;3.47;2.80;;;7.30;99.90;;;;;;5045014;28;20238;-84
2021/04/25 07:29:42;;;;;;;4.70;3.08;;;7.20;99.90;;;;;;5050844;28;20219;-86
2021/04/25 07:32:15;;;;;;;3.67;2.92;;;7.50;99.90;;;;;;5056259;28;20230;-85
2021/04/25 07:34:46;;;;;;;7.15;3.20;;;7.90;99.90;;;;;;5051533;28;20184;-84
2021/04/25 07:37:13;;;;;;;2.83;2.45;;;7.70;99.90;;;;;;5045573;28;20204;-85
2021/04/25 07:39:41;;;;;;;4.13;2.40;;;8.10;99.90;;;;;;5046762;28;20200;-85
2021/04/25 07:42:08;;;;;;;5.05;2.25;;;8.20;99.90;;;;;;5049110;28;20441;-84
2021/04/25 07:44:37;;;;;;;3.03;2.37;;;;;;;;;;5049870;28;20219;-85
2021/04/25 07:47:03;;;;;;;3.57;2.40;;;8.60;99.90;;;;;;5056440;28;20472;-86
2021/04/25 07:49:30;;;;;;;4.20;2.30;;;8.40;99.90;;;;;;5055850;28;20446;-86
2021/04/25 07:51:56;;;;;;;3.97;2.30;;;8.40;99.20;;;;;;5057813;28;20425;-86
2021/04/25 07:54:23;;;;;;;3.30;2.37;;;8.20;99.90;;;;;;5064688;28;20183;-86
2021/04/25 07:56:51;;;;;;;2.33;1.80;;;;;;;;;;5063505;28;20432;-85
2021/04/25 07:59:17;;;;;;;1.85;1.75;;;;;;;;;;5064423;28;20425;-86
2021/04/25 08:01:44;;;;;;;3.72;2.15;;;;;;;;;;5061098;28;20440;-84
2021/04/25 08:04:10;;;;;;;3.43;2.30;;;;;;;;;;5062905;28;20191;-83
2021/04/25 08:06:36;;;;;;;3.35;2.10;;;8.20;99.90;;;;;;5061780;28;20445;-85
2021/04/25 08:09:03;;;;;;;2.53;2.27;;;8.30;98.40;;;;;;5062051;28;20577;-83
2021/04/25 08:11:29;;;;;;;4.70;2.70;;;;;;;;;;5060557;28;20450;-85
2021/04/25 08:13:56;;;;;;;6.22;1.80;;;8.00;97.10;;;;;;5048035;28;20448;-85
2021/04/25 08:16:22;;;;;;;3.23;2.07;;;7.90;99.90;;;;;;5048928;28;20207;-85
2021/04/25 08:18:49;;;;;;;2.10;1.52;;;8.30;99.90;;;;;;5050247;28;20454;-85
2021/04/25 08:21:15;;;;;;;5.03;2.47;;;;;;;;;;5049025;28;20203;-86
2021/04/25 08:23:41;;;;;;;2.50;2.20;;;8.90;99.90;;;;;;5048628;28;20867;-85
2021/04/25 08:26:07;;;;;;;4.10;2.60;;;8.50;98.40;;;;;;5047240;28;20492;-84
2021/04/25 08:28:34;;;;;;;3.80;2.43;;;8.20;99.90;;;;;;5047893;28;20446;-84
2021/04/25 08:31:01;;;;;;;2.23;2.00;;;8.40;99.90;;;;;;5048548;28;20472;-84
2021/04/25 08:33:27;;;;;;;2.30;2.10;;;8.70;97.00;;;;;;5048176;28;20786;-86
2021/04/25 08:35:53;;;;;;;2.23;1.83;;;8.50;99.90;;;;;;5048361;28;20443;-84
2021/04/25 08:38:20;;;;;;;1.90;1.43;;;8.20;99.90;;;;;;5051327;28;20417;-84
2021/04/25 08:40:46;;;;;;;1.90;1.70;;;7.90;99.90;;;;;;5048221;28;20450;-84
2021/04/25 08:43:14;;;;;;;1.83;1.70;;;8.40;96.60;;;;;;5065738;22;20502;-79
2021/04/25 08:45:42;;;;;;;2.97;2.10;;;8.70;96.80;;;;;;5057244;28;20482;-79
2021/04/25 08:48:13;;;;;;;4.53;2.10;;;8.10;99.90;;;;;;5058363;28;20449;-77
2021/04/25 08:50:40;;;;;;;5.07;3.40;;;8.00;99.90;;;;;;5060373;28;20431;-78
2021/04/25 08:53:07;;;;;;;3.25;1.40;;;8.00;99.90;;;;;;5059326;28;20470;-78
2021/04/25 08:55:34;;;;;;;5.18;1.55;;;7.30;99.90;;;;;;5059055;28;20440;-79
2021/04/25 08:58:00;;;;;;;2.17;1.98;;;7.60;99.90;;;;;;5058229;28;20204;-78
2021/04/25 09:00:26;;;;;;;2.13;1.80;;;7.70;99.90;;;;;;5056502;28;20287;-78
2021/04/25 09:02:53;;;;;;;2.33;2.00;;;7.90;99.90;;;;;;5056535;28;20234;-78
2021/04/25 09:05:21;;;;;;;3.28;2.55;;;7.60;99.90;;;;;;5056450;28;20246;-79
2021/04/25 09:07:55;;;;;;;2.20;2.00;;;7.90;99.90;;;;;;5054894;28;20323;-79
2021/04/25 09:10:43;;;;;;;2.05;1.63;;;7.60;99.90;;;;;;5052820;28;20472;-79
2021/04/25 09:13:18;;;;;;;2.38;2.17;;;7.40;99.90;;;;;;5045360;28;20672;-79
2021/04/25 09:15:45;;;;;;;3.20;2.20;;;6.80;99.90;;;;;;5046310;28;20200;-78
2021/04/25 09:18:11;;;;;;;1.97;1.87;;;8.00;99.90;;;;;;5046291;28;20211;-79
2021/04/25 09:20:41;;;;;;;3.05;2.22;;;8.20;99.90;;;;;;5044098;28;20964;-79
2021/04/25 09:23:10;;;;;;;5.03;2.97;;;8.00;99.90;;;;;;5044118;28;20234;-79
2021/04/25 09:25:36;;;;;;;3.13;2.65;;;7.50;99.90;;;;;;5042653;28;20505;-79
2021/04/25 09:28:11;;;;;;;3.50;1.80;;;7.80;99.90;;;;;;5044152;28;20859;-79
2021/04/25 09:30:38;;;;;;;3.42;3.00;;;7.90;99.90;;;;;;5049035;28;20446;-79
2021/04/25 09:33:06;;;;;;;3.25;2.65;;;7.90;99.90;;;;;;5046744;28;20223;-79
2021/04/25 09:35:33;;;;;;;6.32;4.75;;;8.50;99.90;;;;;;5043279;28;20250;-79
2021/04/25 09:38:09;;;;;;;2.20;2.00;;;8.20;99.90;;;;;;5042978;28;20203;-80
2021/04/25 09:40:41;;;;;;;2.15;1.95;;;8.10;99.90;;;;;;5043840;28;20427;-79
2021/04/25 09:43:09;;;;;;;2.85;2.63;;;8.20;99.90;;;;;;5043128;28;20258;-78
2021/04/25 09:45:37;;;;;;;3.85;2.60;;;7.80;99.90;;;;;;5041885;28;20227;-78
2021/04/25 09:48:23;;;;;;;1.90;1.80;;;7.80;99.90;;;;;;5043351;28;20200;-79
2021/04/25 09:51:10;;;;;;;4.13;2.30;;;7.80;99.90;;;;;;5041129;28;20191;-79
2021/04/25 09:53:39;;;;;;;5.50;2.50;;;6.80;99.90;;;;;;5041942;28;20729;-78
2021/04/25 09:56:07;;;;;;;2.95;2.40;;;7.10;99.90;;;;;;5042318;28;20635;-79
2021/04/25 09:58:34;;;;;;;4.28;2.60;;;;;;;;;;5040574;28;20674;-79
2021/04/25 10:01:01;;;;;;;6.30;2.28;;;7.10;99.90;;;;;;5040836;28;20263;-79
2021/04/25 10:03:34;;;;;;;2.70;2.50;;;7.30;99.90;;;;;;5042078;28;20233;-78
2021/04/25 10:06:04;;;;;;;3.63;2.30;;;6.80;99.90;;;;;;5043720;28;20212;-78
2021/04/25 10:08:31;;;;;;;2.35;2.15;;;7.20;99.90;;;;;;5041958;28;20254;-79
2021/04/25 10:11:02;;;;;;;3.17;2.88;;;;;;;;;;5041144;28;20631;-79
2021/04/25 10:13:28;;;;;;;4.90;2.60;;;7.80;99.90;;;;;;5039229;28;20232;-78
2021/04/25 10:15:55;;;;;;;4.05;2.47;;;8.00;99.90;;;;;;5038937;28;20449;-79
2021/04/25 10:18:21;;;;;;;2.03;1.73;;;8.10;99.90;;;;;;5040053;28;20663;-79
2021/04/25 10:20:50;;;;;;;2.10;1.67;;;8.00;99.90;;;;;;5039051;28;20435;-79
2021/04/25 10:23:17;;;;;;;3.43;2.50;;;;;;;;;;5039097;28;20235;-79
2021/04/25 10:25:43;;;;;;;3.30;2.30;;;9.00;99.90;;;;;;5040056;28;20505;-79
2021/04/25 10:28:15;;;;;;;4.60;2.37;;;9.40;99.90;;;;;;5040252;28;20945;-79
2021/04/25 10:30:43;;;;;;;2.70;2.10;;;9.20;99.90;;;;;;5039972;28;20439;-79
2021/04/25 10:33:09;;;;;;;2.20;1.70;;;9.50;99.90;;;;;;5042168;28;20841;-79
2021/04/25 10:35:35;;;;;;;1.90;1.80;;;9.20;99.90;;;;;;5047484;28;20453;-79
2021/04/25 10:38:03;;;;;;;3.83;2.23;;;8.60;99.90;;;;;;5049423;28;20509;-79
2021/04/25 10:40:32;;;;;;;3.37;1.90;;;8.70;99.90;;;;;;5049480;28;20473;-78
2021/04/25 10:43:01;;;;;;;4.03;3.03;;;9.00;98.50;;;;;;5052488;28;20562;-78
2021/04/25 10:45:30;;;;;;;1.97;1.77;;;9.40;99.90;;;;;;5051439;28;20490;-78
2021/04/25 10:48:22;;;;;;;4.40;1.80;;;9.20;99.90;;;;;;5051329;28;20478;-79
2021/04/25 10:50:51;;;;;;;1.90;1.80;;;9.10;99.90;;;;;;5050321;28;20442;-79
2021/04/25 10:53:19;;;;;;;2.43;1.60;;;8.90;93.10;;;;;;5049764;28;20636;-78
2021/04/25 10:55:47;;;;;;;1.67;1.43;;;8.80;99.90;;;;;;5052262;28;20442;-78
2021/04/25 10:58:20;;;;;;;2.47;1.50;;;9.00;99.90;;;;;;5044272;28;20465;-79
2021/04/25 11:00:48;;;;;;;2.37;1.60;;;9.40;93.60;;;;;;5040091;28;20993;-79
2021/04/25 11:03:35;;;;;;;2.17;1.97;;;9.30;99.90;;;;;;5040770;28;20471;-79
2021/04/25 11:06:02;;;;;;;2.30;1.83;;;8.80;99.90;;;;;;5040723;28;20480;-79
2021/04/25 11:08:41;;;;;;;2.83;2.37;;;8.40;99.90;;;;;;5041855;28;20447;-78
2021/04/25 11:11:10;;;;;;;3.10;2.50;;;8.80;94.60;;;;;;5040651;28;20430;-78
2021/04/25 11:13:44;;;;;;;2.97;2.23;;;9.20;99.90;;;;;;5039541;28;20471;-79
2021/04/25 11:16:26;;;;;;;3.17;1.90;;;9.70;99.90;;;;;;5040377;28;20430;-79
2021/04/25 11:18:54;;;;;;;2.97;2.60;;;9.40;99.90;;;;;;5048120;28;20492;-79
2021/04/25 11:21:49;;;;;;;2.83;1.77;;;9.20;99.90;;;;;;5051829;28;20431;-79
2021/04/25 11:24:30;;;;;;;1.60;1.50;;;9.30;94.80;;;;;;5052192;28;20477;-78
2021/04/25 11:26:59;;;;;;;1.97;1.37;;;10.10;99.90;;;;;;5044354;28;20430;-79
2021/04/25 11:30:04;;;;;;;5.10;2.13;;;10.20;99.90;;;;;;5043200;28;20485;-79
2021/04/25 11:32:33;;;;;;;4.50;3.47;;;10.50;99.90;;;;;;5051702;28;20474;-79
2021/04/25 11:35:03;;;;;;;1.87;1.50;;;10.40;92.90;;;;;;5052812;28;20438;-78
2021/04/25 11:37:29;;;;;;;1.97;1.50;;;;;;;;;;5050691;28;20435;-78
2021/04/25 11:39:57;;;;;;;2.20;1.70;;;10.10;92.10;;;;;;5050113;28;20469;-78
2021/04/25 11:42:26;;;;;;;3.60;1.33;;;10.10;99.90;;;;;;5047624;28;20495;-79
2021/04/25 11:44:53;;;;;;;2.27;1.93;;;;;;;;;;5040614;28;20560;-78
2021/04/25 11:47:19;;;;;;;4.77;1.87;;;9.70;99.90;;;;;;5041211;28;20433;-79
2021/04/25 11:49:48;;;;;;;1.67;1.57;;;10.00;99.90;;;;;;5039826;28;20454;-79
2021/04/25 11:52:16;;;;;;;2.23;1.37;;;10.00;99.90;;;;;;5038902;28;20525;-79
2021/04/25 11:54:44;;;;;;;9.43;2.97;;;10.00;99.90;;;;;;5040302;28;20442;-78
2021/04/25 11:57:13;;;;;;;1.87;1.77;;;10.20;99.90;;;;;;5040079;28;20469;-79
2021/04/25 11:59:52;;;;;;;2.00;1.27;;;10.20;99.90;;;;;;5039196;28;20454;-79
2021/04/25 12:02:18;;;;;;;2.20;1.77;;;10.20;99.90;;;;;;5039179;28;20545;-78
2021/04/25 12:04:46;;;;;;;2.73;2.10;;;10.00;99.90;;;;;;5038602;28;20468;-81
2021/04/25 12:07:12;;;;;;;2.00;1.40;;;10.40;99.90;;;;;;5038115;28;20477;-79
2021/04/25 12:09:39;;;;;;;1.60;1.30;;;9.90;90.30;;;;;;5038764;28;20450;-79
2021/04/25 12:12:07;;;;;;;2.27;1.90;;;10.40;99.90;;;;;;5038527;28;20475;-78
2021/04/25 12:14:33;;;;;;;3.07;1.60;;;10.70;99.90;;;;;;5038448;28;20450;-79
2021/04/25 12:17:12;;;;;;;2.40;1.50;;;10.70;99.90;;;;;;5038254;28;20456;-79
2021/04/25 12:19:38;;;;;;;1.93;1.50;;;11.20;99.90;;;;;;5037290;28;20733;-79
2021/04/25 12:22:06;;;;;;;1.20;1.10;;;10.50;98.90;;;;;;5037731;28;20958;-79
2021/04/25 12:24:32;;;;;;;3.10;1.43;;;10.30;99.90;;;;;;5038167;28;20442;-80
2021/04/25 12:26:58;;;;;;;1.67;1.57;;;10.70;98.80;;;;;;5038164;28;20427;-79
2021/04/25 12:29:35;;;;;;;0.80;0.80;;;10.70;98.50;;;;;;5039266;28;20474;-79
2021/04/25 12:32:03;;;;;;;1.40;1.20;;;10.40;97.90;;;;;;5040956;28;20498;-79
2021/04/25 12:34:31;;;;;;;1.27;1.00;;;10.80;98.10;;;;;;5042453;28;20450;-79
2021/04/25 12:36:59;;;;;;;2.40;1.43;;;10.10;97.10;;;;;;5042076;28;20450;-79
2021/04/25 12:39:39;;;;;;;5.40;1.17;;;10.40;96.20;;;;;;5042015;28;20461;-79
2021/04/25 12:42:05;;;;;;;1.90;1.20;;;10.30;96.40;;;;;;5024291;28;487391;-80
2021/04/25 12:44:37;;;;;;;3.23;1.20;;;10.50;67.70;;;;;;5043870;28;20546;-79
2021/04/25 12:47:04;;;;;;;1.70;1.60;;;10.70;95.50;;;;;;5044528;28;20756;-79
2021/04/25 12:49:34;;;;;;;1.20;1.10;;;10.60;94.40;;;;;;5045050;28;20458;-80
2021/04/25 12:52:01;;;;;;;1.10;1.00;;;10.00;94.00;;;;;;5041581;28;20474;-80
2021/04/25 12:54:28;;;;;;;0.87;0.83;;;10.00;65.60;;;;;;5041011;28;20527;-80
2021/04/25 12:56:56;;;;;;;1.50;1.40;;;10.40;94.80;;;;;;5040003;28;20458;-80
2021/04/25 12:59:31;;;;;;;1.80;1.20;;;10.90;99.90;;;;;;5040688;28;20457;-80
2021/04/25 13:02:09;;;;;;;1.33;1.23;;;10.80;66.70;;;;;;5041101;28;20832;-80
2021/04/25 13:04:38;;;;;;;2.00;1.00;;;10.90;92.70;;;;;;5041751;28;20921;-81
2021/04/25 13:07:25;;;;;;;3.30;1.63;;;11.50;91.90;;;;;;5042130;28;20447;-79
2021/04/25 13:10:08;;;;;;;1.43;0.90;;;11.30;96.40;;;;;;5048888;28;20481;-82
2021/04/25 13:12:37;;;;;;;1.00;0.90;;;9.60;91.40;;;;;;5053914;28;20936;-81